Chumphon Airport
VTSE : now visible

Airfield :











YOU CAN JOIN US ON...

 
LOGIN :

Register | Disclaimer

   EN    FR    IT 

 









Legend :    VFR   Marginal VFR   IFR   Intensive IFR   Very Intensive IFR
Visi :
Ceiling :
>= 8 km
>= 3000ft
5 to 8 km
1000 to 3000 ft
1500m to 5 km
500 to 1000 ft
800 to 1500m
200 to 500 ft
< 800m
< 200 ft
Symbols :   Thunderstorms  Fog  Heavy snow  Heavy precipitations  Wind > 20 kt






- Airport Elevation : 18 ft
- IATA code : CJM


VTSE - Chumphon

CURRENT METAR :
  • 101000Z 09007KT 060V120 9999 FEW020 32/25 Q1009 NOSIG

EXPIRED METARs :
  • 100900Z 11008KT 060V130 9999 FEW020 32/26 Q1010 NOSIG
  • 100800Z 09010KT 070V150 9999 VCSH FEW018TCU SCT020 33/25 Q1010 NOSIG

TAF TAF VTSE
Valid from the 10 at 06:00 until the 11 at 06:00 UTC


100500Z 1006/1106 13010KT 9999 SCT020
TEMPO 1006/1012 VRB10G20KT 5000 TSRA FEW016CB SCT018 BKN100
BECMG 1014/1016 31003KT
BECMG 1104/1106 13010KT



MET'MAP, your aeronautical weather chart ! - Copyright ORBIFLY December 2007 - Disclaimer

ORBIFLY MET'MAP TEAM :

Programming & Development : Alexandra Zaïnal
Concept & original design : Baudouin d'Aumeries
Assistance for programming : Marc-Olivier Méhu
Technical & hardware support : Manuel Goepfert

Contact : metmap@orbifly.com




SOURCES & CREDITS :

   NOAA       Earth
Advisory